Startpagina
METAR-TAF:

METAR-TAF

Vliegvelden :

Khajuraho, India

breedte: 24-49-02N, lengte: 79-55-07E, hoogte: 222 m

Actueel weer

Dit bericht is 5 uur en het 55 minuten geleden gemaakt, om 12:00 UTC
Wind 2 kt uit het noordnoordwesten
Temperatuur 27°C
Vochtigheid 32%
Druk 1012 hPa
Zicht: 5000 m
Heiigheid

METAR: VEKO 161200Z 34002KT 5000 HZ NSC 27/09 Q1012

Tijdstip: 23:25 (17:55 UTC)


TAF: ontbreekt

Waarnemingen en weersverwachtingen van meer dan 4000 vliegvelden (METAR en TAF).

De beschikbare stations zijn de gele en rode punten op de kaart.

Ga met uw muis naar het station om de naam te zien.

Klik dan om waarnemingen en weersverwachtingen te zien.

kaart wijzigen: klik op de groene knoppen met een zwart kruis om in te zoomen, op de groene knop met een streepje om uit te zoomen of op de groene pijlen voor aangrenzende kaarten.


METAR-TAF: